sensor_id;sensor_type;location;lat;lon;timestamp;pressure;altitude;pressure_sealevel;temperature;humidity
35489;BME280;21602;55.670;37.578;2023-08-31T00:00:55;99155.09;;;16.26;85.82
35489;BME280;21602;55.670;37.578;2023-08-31T00:03:22;99160.47;;;16.26;85.65
35489;BME280;21602;55.670;37.578;2023-08-31T00:05:48;99157.81;;;16.21;86.08
35489;BME280;21602;55.670;37.578;2023-08-31T00:08:18;99158.59;;;16.22;86.47
35489;BME280;21602;55.670;37.578;2023-08-31T00:10:43;99164.78;;;16.27;86.50
35489;BME280;21602;55.670;37.578;2023-08-31T00:13:13;99162.63;;;16.29;86.54
35489;BME280;21602;55.670;37.578;2023-08-31T00:15:39;99158.03;;;16.30;86.57
35489;BME280;21602;55.670;37.578;2023-08-31T00:18:06;99163.69;;;16.28;86.75
35489;BME280;21602;55.670;37.578;2023-08-31T00:20:33;99172.31;;;16.30;86.93
35489;BME280;21602;55.670;37.578;2023-08-31T00:23:00;99156.16;;;16.30;86.83
35489;BME280;21602;55.670;37.578;2023-08-31T00:25:26;99151.31;;;16.27;86.79
35489;BME280;21602;55.670;37.578;2023-08-31T00:27:52;99152.69;;;16.25;86.76
35489;BME280;21602;55.670;37.578;2023-08-31T00:30:20;99154.03;;;16.22;87.09
35489;BME280;21602;55.670;37.578;2023-08-31T00:32:46;99157.28;;;16.19;87.17
35489;BME280;21602;55.670;37.578;2023-08-31T00:35:33;99159.44;;;16.12;87.32
35489;BME280;21602;55.670;37.578;2023-08-31T00:37:59;99161.34;;;16.06;87.57
35489;BME280;21602;55.670;37.578;2023-08-31T00:40:26;99162.69;;;16.04;88.01
35489;BME280;21602;55.670;37.578;2023-08-31T00:42:53;99160.56;;;16.06;88.05
35489;BME280;21602;55.670;37.578;2023-08-31T00:45:20;99171.31;;;16.06;87.90
35489;BME280;21602;55.670;37.578;2023-08-31T00:47:48;99169.44;;;16.01;88.11
35489;BME280;21602;55.670;37.578;2023-08-31T00:50:14;99166.50;;;15.98;89.10
35489;BME280;21602;55.670;37.578;2023-08-31T00:52:42;99170.00;;;15.98;88.93
35489;BME280;21602;55.670;37.578;2023-08-31T00:55:12;99165.94;;;16.06;88.96
35489;BME280;21602;55.670;37.578;2023-08-31T00:57:38;99164.56;;;16.08;88.75
35489;BME280;21602;55.670;37.578;2023-08-31T01:00:06;99162.16;;;16.07;88.70
35489;BME280;21602;55.670;37.578;2023-08-31T01:02:37;99158.13;;;16.09;89.03
35489;BME280;21602;55.670;37.578;2023-08-31T01:05:45;99154.31;;;16.21;89.29
35489;BME280;21602;55.670;37.578;2023-08-31T01:11:14;99158.31;;;16.23;89.02
35489;BME280;21602;55.670;37.578;2023-08-31T01:13:48;99161.03;;;16.23;89.13
35489;BME280;21602;55.670;37.578;2023-08-31T01:16:17;99164.00;;;16.22;88.95
35489;BME280;21602;55.670;37.578;2023-08-31T01:18:46;99149.22;;;16.19;88.98
35489;BME280;21602;55.670;37.578;2023-08-31T01:21:25;99153.53;;;16.15;89.27
35489;BME280;21602;55.670;37.578;2023-08-31T01:23:56;99157.84;;;16.11;89.34
35489;BME280;21602;55.670;37.578;2023-08-31T01:26:24;99170.25;;;16.07;89.22
35489;BME280;21602;55.670;37.578;2023-08-31T01:28:51;99168.63;;;16.06;89.39
35489;BME280;21602;55.670;37.578;2023-08-31T01:31:18;99160.28;;;16.02;89.58
35489;BME280;21602;55.670;37.578;2023-08-31T01:33:48;99156.25;;;16.00;89.67
35489;BME280;21602;55.670;37.578;2023-08-31T01:36:26;99157.31;;;16.04;90.25
35489;BME280;21602;55.670;37.578;2023-08-31T01:39:06;99163.25;;;16.06;90.09
35489;BME280;21602;55.670;37.578;2023-08-31T01:41:40;99159.50;;;16.02;89.87
35489;BME280;21602;55.670;37.578;2023-08-31T01:44:08;99160.56;;;16.01;90.26
35489;BME280;21602;55.670;37.578;2023-08-31T01:46:40;99153.56;;;16.00;90.09
35489;BME280;21602;55.670;37.578;2023-08-31T01:49:07;99164.31;;;16.00;90.42
35489;BME280;21602;55.670;37.578;2023-08-31T01:51:33;99153.03;;;15.98;90.38
35489;BME280;21602;55.670;37.578;2023-08-31T01:53:59;99151.94;;;15.99;90.52
35489;BME280;21602;55.670;37.578;2023-08-31T01:56:25;99149.22;;;16.04;90.62
35489;BME280;21602;55.670;37.578;2023-08-31T01:58:51;99151.38;;;16.07;90.63
35489;BME280;21602;55.670;37.578;2023-08-31T02:01:17;99153.78;;;16.08;90.49
35489;BME280;21602;55.670;37.578;2023-08-31T02:03:43;99155.97;;;16.06;90.37
35489;BME280;21602;55.670;37.578;2023-08-31T02:06:09;99152.22;;;16.02;90.63
35489;BME280;21602;55.670;37.578;2023-08-31T02:08:35;99151.41;;;16.02;90.75
35489;BME280;21602;55.670;37.578;2023-08-31T02:11:01;99148.44;;;16.03;90.64
35489;BME280;21602;55.670;37.578;2023-08-31T02:13:27;99138.47;;;16.04;90.81
35489;BME280;21602;55.670;37.578;2023-08-31T02:15:53;99140.91;;;16.00;90.50
35489;BME280;21602;55.670;37.578;2023-08-31T02:18:19;99142.25;;;15.98;90.71
35489;BME280;21602;55.670;37.578;2023-08-31T02:20:45;99137.41;;;15.95;91.25
35489;BME280;21602;55.670;37.578;2023-08-31T02:23:11;99144.97;;;15.93;91.09
35489;BME280;21602;55.670;37.578;2023-08-31T02:25:38;99144.44;;;15.91;90.90
35489;BME280;21602;55.670;37.578;2023-08-31T02:28:04;99145.00;;;15.82;91.15
35489;BME280;21602;55.670;37.578;2023-08-31T02:30:30;99150.41;;;15.77;91.46
35489;BME280;21602;55.670;37.578;2023-08-31T02:32:56;99151.47;;;15.76;91.67
35489;BME280;21602;55.670;37.578;2023-08-31T02:35:22;99157.66;;;15.77;91.74
35489;BME280;21602;55.670;37.578;2023-08-31T02:37:49;99153.34;;;15.76;92.04
35489;BME280;21602;55.670;37.578;2023-08-31T02:40:17;99157.41;;;15.73;92.40
35489;BME280;21602;55.670;37.578;2023-08-31T02:42:44;99154.16;;;15.71;92.47
35489;BME280;21602;55.670;37.578;2023-08-31T02:45:11;99152.53;;;15.70;92.38
35489;BME280;21602;55.670;37.578;2023-08-31T02:47:37;99153.91;;;15.68;92.49
35489;BME280;21602;55.670;37.578;2023-08-31T02:50:03;99157.94;;;15.65;92.48
35489;BME280;21602;55.670;37.578;2023-08-31T02:52:30;99157.91;;;15.60;92.88
35489;BME280;21602;55.670;37.578;2023-08-31T02:54:56;99150.94;;;15.59;93.11
35489;BME280;21602;55.670;37.578;2023-08-31T02:57:22;99148.50;;;15.57;92.96
35489;BME280;21602;55.670;37.578;2023-08-31T02:59:50;99145.81;;;15.57;93.16
35489;BME280;21602;55.670;37.578;2023-08-31T03:02:16;99153.34;;;15.55;93.55
35489;BME280;21602;55.670;37.578;2023-08-31T03:04:41;99152.25;;;15.56;93.47
35489;BME280;21602;55.670;37.578;2023-08-31T03:07:08;99151.75;;;15.54;93.36
35489;BME280;21602;55.670;37.578;2023-08-31T03:09:35;99145.81;;;15.52;93.47
35489;BME280;21602;55.670;37.578;2023-08-31T03:12:04;99150.13;;;15.53;93.67
35489;BME280;21602;55.670;37.578;2023-08-31T03:14:30;99146.06;;;15.56;93.85
35489;BME280;21602;55.670;37.578;2023-08-31T03:16:56;99150.38;;;15.57;93.66
35489;BME280;21602;55.670;37.578;2023-08-31T03:19:22;99149.03;;;15.59;94.00
35489;BME280;21602;55.670;37.578;2023-08-31T03:21:49;99141.50;;;15.61;93.84
35489;BME280;21602;55.670;37.578;2023-08-31T03:24:15;99149.06;;;15.65;93.43
35489;BME280;21602;55.670;37.578;2023-08-31T03:27:01;99139.91;;;15.66;93.68
35489;BME280;21602;55.670;37.578;2023-08-31T03:29:28;99139.66;;;15.72;93.95
35489;BME280;21602;55.670;37.578;2023-08-31T03:31:55;99147.97;;;15.81;93.88
35489;BME280;21602;55.670;37.578;2023-08-31T03:34:21;99148.22;;;15.84;93.94
35489;BME280;21602;55.670;37.578;2023-08-31T03:36:48;99142.03;;;15.84;93.70
35489;BME280;21602;55.670;37.578;2023-08-31T03:39:15;99134.75;;;15.79;93.89
35489;BME280;21602;55.670;37.578;2023-08-31T03:41:41;99136.66;;;15.79;94.17
35489;BME280;21602;55.670;37.578;2023-08-31T03:44:07;99139.34;;;15.84;93.61
35489;BME280;21602;55.670;37.578;2023-08-31T03:46:33;99144.19;;;15.87;93.64
35489;BME280;21602;55.670;37.578;2023-08-31T03:48:59;99146.31;;;15.90;94.12
35489;BME280;21602;55.670;37.578;2023-08-31T03:51:25;99149.25;;;15.99;93.74
35489;BME280;21602;55.670;37.578;2023-08-31T03:53:50;99144.94;;;16.03;93.29
35489;BME280;21602;55.670;37.578;2023-08-31T03:56:17;99147.63;;;16.03;93.34
35489;BME280;21602;55.670;37.578;2023-08-31T03:58:43;99153.56;;;16.05;93.22
35489;BME280;21602;55.670;37.578;2023-08-31T04:01:09;99148.69;;;16.07;92.99
35489;BME280;21602;55.670;37.578;2023-08-31T04:03:37;99162.44;;;16.10;93.30
35489;BME280;21602;55.670;37.578;2023-08-31T04:06:03;99169.41;;;16.17;92.99
35489;BME280;21602;55.670;37.578;2023-08-31T04:08:30;99163.16;;;16.26;92.88
35489;BME280;21602;55.670;37.578;2023-08-31T04:10:56;99156.66;;;16.37;93.20
35489;BME280;21602;55.670;37.578;2023-08-31T04:13:22;99155.03;;;16.42;92.13
35489;BME280;21602;55.670;37.578;2023-08-31T04:15:48;99151.25;;;16.48;91.86
35489;BME280;21602;55.670;37.578;2023-08-31T04:18:14;99162.03;;;16.48;91.62
35489;BME280;21602;55.670;37.578;2023-08-31T04:20:49;99171.69;;;16.54;91.55
35489;BME280;21602;55.670;37.578;2023-08-31T04:23:17;99172.19;;;16.56;91.46
35489;BME280;21602;55.670;37.578;2023-08-31T04:25:43;99172.44;;;16.64;91.67
35489;BME280;21602;55.670;37.578;2023-08-31T04:28:09;99175.66;;;16.77;90.78
35489;BME280;21602;55.670;37.578;2023-08-31T04:30:34;99180.69;;;16.88;90.42
35489;BME280;21602;55.670;37.578;2023-08-31T04:33:00;99165.03;;;16.96;89.91
35489;BME280;21602;55.670;37.578;2023-08-31T04:35:26;99166.03;;;17.05;89.80
35489;BME280;21602;55.670;37.578;2023-08-31T04:37:52;99169.75;;;17.14;89.30
35489;BME280;21602;55.670;37.578;2023-08-31T04:40:18;99172.97;;;17.16;89.05
35489;BME280;21602;55.670;37.578;2023-08-31T04:42:43;99171.28;;;17.25;88.77
35489;BME280;21602;55.670;37.578;2023-08-31T04:45:09;99161.50;;;17.34;88.55
35489;BME280;21602;55.670;37.578;2023-08-31T04:47:36;99162.75;;;17.42;87.94
35489;BME280;21602;55.670;37.578;2023-08-31T04:50:02;99166.19;;;17.53;87.98
35489;BME280;21602;55.670;37.578;2023-08-31T04:52:29;99167.41;;;17.65;87.78
35489;BME280;21602;55.670;37.578;2023-08-31T04:54:54;99171.91;;;17.80;87.01
35489;BME280;21602;55.670;37.578;2023-08-31T04:57:20;99178.56;;;17.88;86.31
35489;BME280;21602;55.670;37.578;2023-08-31T04:59:46;99177.38;;;17.99;85.95
35489;BME280;21602;55.670;37.578;2023-08-31T05:02:12;99177.78;;;18.11;85.18
35489;BME280;21602;55.670;37.578;2023-08-31T05:04:38;99173.66;;;18.19;84.26
35489;BME280;21602;55.670;37.578;2023-08-31T05:07:04;99178.47;;;18.22;83.73
35489;BME280;21602;55.670;37.578;2023-08-31T05:09:30;99173.00;;;18.27;83.75
35489;BME280;21602;55.670;37.578;2023-08-31T05:12:01;99177.78;;;18.35;83.42
35489;BME280;21602;55.670;37.578;2023-08-31T05:14:28;99176.63;;;18.41;83.29
35489;BME280;21602;55.670;37.578;2023-08-31T05:16:55;99173.06;;;18.46;83.07
35489;BME280;21602;55.670;37.578;2023-08-31T05:19:21;99165.72;;;18.52;83.08
35489;BME280;21602;55.670;37.578;2023-08-31T05:21:46;99168.91;;;18.54;82.79
35489;BME280;21602;55.670;37.578;2023-08-31T05:24:12;99169.16;;;18.57;82.12
35489;BME280;21602;55.670;37.578;2023-08-31T05:26:39;99170.44;;;18.60;81.92
35489;BME280;21602;55.670;37.578;2023-08-31T05:29:05;99170.97;;;18.62;82.10
35489;BME280;21602;55.670;37.578;2023-08-31T05:31:31;99172.50;;;18.68;81.65
35489;BME280;21602;55.670;37.578;2023-08-31T05:33:58;99164.28;;;18.78;81.98
35489;BME280;21602;55.670;37.578;2023-08-31T05:36:24;99178.75;;;18.87;81.38
35489;BME280;21602;55.670;37.578;2023-08-31T05:38:52;99180.91;;;18.90;80.67
35489;BME280;21602;55.670;37.578;2023-08-31T05:41:19;99184.09;;;18.92;81.00
35489;BME280;21602;55.670;37.578;2023-08-31T05:43:45;99195.94;;;18.97;80.62
35489;BME280;21602;55.670;37.578;2023-08-31T05:46:11;99204.00;;;19.02;79.99
35489;BME280;21602;55.670;37.578;2023-08-31T05:48:37;99196.31;;;19.09;80.18
35489;BME280;21602;55.670;37.578;2023-08-31T05:51:03;99205.66;;;19.16;79.17
35489;BME280;21602;55.670;37.578;2023-08-31T05:53:31;99206.84;;;19.29;79.31
35489;BME280;21602;55.670;37.578;2023-08-31T05:55:58;99203.97;;;19.39;78.61
35489;BME280;21602;55.670;37.578;2023-08-31T05:58:32;99203.88;;;19.44;77.92
35489;BME280;21602;55.670;37.578;2023-08-31T06:01:01;99209.72;;;19.52;77.93
35489;BME280;21602;55.670;37.578;2023-08-31T06:03:28;99208.53;;;19.58;77.63
35489;BME280;21602;55.670;37.578;2023-08-31T06:05:55;99208.50;;;19.63;76.89
35489;BME280;21602;55.670;37.578;2023-08-31T06:08:22;99217.41;;;19.63;76.82
35489;BME280;21602;55.670;37.578;2023-08-31T06:10:47;99217.41;;;19.63;76.60
35489;BME280;21602;55.670;37.578;2023-08-31T06:13:17;99222.53;;;19.65;76.21
35489;BME280;21602;55.670;37.578;2023-08-31T06:15:46;99229.50;;;19.71;76.09
35489;BME280;21602;55.670;37.578;2023-08-31T06:18:12;99226.06;;;19.79;76.41
35489;BME280;21602;55.670;37.578;2023-08-31T06:20:38;99224.00;;;19.90;75.71
35489;BME280;21602;55.670;37.578;2023-08-31T06:23:04;99229.94;;;19.92;75.44
35489;BME280;21602;55.670;37.578;2023-08-31T06:25:30;99229.13;;;19.91;75.21
35489;BME280;21602;55.670;37.578;2023-08-31T06:27:55;99218.69;;;19.99;74.98
35489;BME280;21602;55.670;37.578;2023-08-31T06:30:21;99216.41;;;20.06;74.96
35489;BME280;21602;55.670;37.578;2023-08-31T06:32:50;99215.63;;;20.19;74.39
35489;BME280;21602;55.670;37.578;2023-08-31T06:35:19;99221.53;;;20.35;73.83
35489;BME280;21602;55.670;37.578;2023-08-31T06:37:45;99212.94;;;20.46;73.35
35489;BME280;21602;55.670;37.578;2023-08-31T06:40:11;99213.13;;;20.50;73.46
35489;BME280;21602;55.670;37.578;2023-08-31T06:42:38;99217.97;;;20.67;73.08
35489;BME280;21602;55.670;37.578;2023-08-31T06:45:06;99214.81;;;20.74;71.97
35489;BME280;21602;55.670;37.578;2023-08-31T06:47:33;99221.53;;;20.90;71.59
35489;BME280;21602;55.670;37.578;2023-08-31T06:49:59;99218.69;;;21.09;71.20
35489;BME280;21602;55.670;37.578;2023-08-31T06:52:26;99221.84;;;21.25;70.53
35489;BME280;21602;55.670;37.578;2023-08-31T06:54:52;99223.22;;;21.36;70.08
35489;BME280;21602;55.670;37.578;2023-08-31T06:57:26;99228.84;;;21.39;69.30
35489;BME280;21602;55.670;37.578;2023-08-31T06:59:52;99227.44;;;21.42;69.17
35489;BME280;21602;55.670;37.578;2023-08-31T07:02:20;99226.53;;;21.46;68.93
35489;BME280;21602;55.670;37.578;2023-08-31T07:04:48;99237.44;;;21.55;68.48
35489;BME280;21602;55.670;37.578;2023-08-31T07:07:14;99225.53;;;21.65;68.44
35489;BME280;21602;55.670;37.578;2023-08-31T07:09:42;99218.69;;;21.67;67.52
35489;BME280;21602;55.670;37.578;2023-08-31T07:12:11;99235.69;;;21.82;67.84
35489;BME280;21602;55.670;37.578;2023-08-31T07:14:40;99215.75;;;21.86;67.70
35489;BME280;21602;55.670;37.578;2023-08-31T07:17:05;99216.56;;;21.87;67.80
35489;BME280;21602;55.670;37.578;2023-08-31T07:19:31;99226.34;;;21.96;67.55
35489;BME280;21602;55.670;37.578;2023-08-31T07:22:00;99225.41;;;22.01;66.64
35489;BME280;21602;55.670;37.578;2023-08-31T07:24:25;99224.34;;;22.11;66.32
35489;BME280;21602;55.670;37.578;2023-08-31T07:26:51;99229.13;;;22.05;66.09
35489;BME280;21602;55.670;37.578;2023-08-31T07:29:19;99221.72;;;21.97;65.38
35489;BME280;21602;55.670;37.578;2023-08-31T07:31:45;99227.53;;;22.04;65.56
35489;BME280;21602;55.670;37.578;2023-08-31T07:34:10;99224.66;;;22.09;65.49
35489;BME280;21602;55.670;37.578;2023-08-31T07:36:37;99219.59;;;22.16;65.61
35489;BME280;21602;55.670;37.578;2023-08-31T07:39:03;99220.94;;;22.28;65.40
35489;BME280;21602;55.670;37.578;2023-08-31T07:41:30;99219.50;;;22.30;65.00
35489;BME280;21602;55.670;37.578;2023-08-31T07:43:55;99215.81;;;22.26;64.56
35489;BME280;21602;55.670;37.578;2023-08-31T07:46:25;99219.06;;;22.37;64.49
35489;BME280;21602;55.670;37.578;2023-08-31T07:48:51;99214.28;;;22.42;64.01
35489;BME280;21602;55.670;37.578;2023-08-31T07:51:23;99213.34;;;22.47;63.75
35489;BME280;21602;55.670;37.578;2023-08-31T07:53:51;99210.66;;;22.56;63.45
35489;BME280;21602;55.670;37.578;2023-08-31T07:56:19;99212.41;;;22.69;63.11
35489;BME280;21602;55.670;37.578;2023-08-31T07:58:45;99217.44;;;22.84;62.96
35489;BME280;21602;55.670;37.578;2023-08-31T08:01:22;99207.84;;;22.95;62.26
35489;BME280;21602;55.670;37.578;2023-08-31T08:03:48;99210.09;;;23.02;62.34
35489;BME280;21602;55.670;37.578;2023-08-31T08:06:14;99222.44;;;23.08;62.17
35489;BME280;21602;55.670;37.578;2023-08-31T08:08:40;99214.91;;;23.14;62.41
35489;BME280;21602;55.670;37.578;2023-08-31T08:11:09;99215.09;;;23.17;62.50
35489;BME280;21602;55.670;37.578;2023-08-31T08:13:35;99207.06;;;23.21;62.21
35489;BME280;21602;55.670;37.578;2023-08-31T08:16:01;99199.56;;;23.27;61.94
35489;BME280;21602;55.670;37.578;2023-08-31T08:18:30;99205.13;;;23.30;61.33
35489;BME280;21602;55.670;37.578;2023-08-31T08:20:55;99205.94;;;23.39;61.61
35489;BME280;21602;55.670;37.578;2023-08-31T08:23:30;99199.69;;;23.30;61.03
35489;BME280;21602;55.670;37.578;2023-08-31T08:25:55;99199.69;;;23.30;60.97
35489;BME280;21602;55.670;37.578;2023-08-31T08:28:21;99189.44;;;23.36;61.55
35489;BME280;21602;55.670;37.578;2023-08-31T08:30:50;99193.44;;;23.47;61.50
35489;BME280;21602;55.670;37.578;2023-08-31T08:33:16;99195.03;;;23.57;61.44
35489;BME280;21602;55.670;37.578;2023-08-31T08:35:43;99199.84;;;23.60;61.25
35489;BME280;21602;55.670;37.578;2023-08-31T08:38:09;99199.97;;;23.63;60.96
35489;BME280;21602;55.670;37.578;2023-08-31T08:40:35;99208.66;;;23.65;60.77
35489;BME280;21602;55.670;37.578;2023-08-31T08:43:01;99206.56;;;23.71;61.01
35489;BME280;21602;55.670;37.578;2023-08-31T08:45:35;99212.66;;;23.76;60.73
35489;BME280;21602;55.670;37.578;2023-08-31T08:48:06;99215.19;;;23.90;59.98
35489;BME280;21602;55.670;37.578;2023-08-31T08:50:36;99206.31;;;24.02;59.73
35489;BME280;21602;55.670;37.578;2023-08-31T08:53:03;99208.38;;;24.14;58.57
35489;BME280;21602;55.670;37.578;2023-08-31T08:55:29;99211.38;;;24.21;58.12
35489;BME280;21602;55.670;37.578;2023-08-31T08:57:58;99215.19;;;24.28;57.38
35489;BME280;21602;55.670;37.578;2023-08-31T09:00:26;99212.13;;;24.30;57.26
35489;BME280;21602;55.670;37.578;2023-08-31T09:02:53;99216.16;;;24.33;56.69
35489;BME280;21602;55.670;37.578;2023-08-31T09:05:19;99211.81;;;24.40;56.09
35489;BME280;21602;55.670;37.578;2023-08-31T09:10:45;99209.81;;;24.49;55.98
35489;BME280;21602;55.670;37.578;2023-08-31T09:13:13;99218.75;;;24.59;56.54
35489;BME280;21602;55.670;37.578;2023-08-31T09:15:48;99206.22;;;24.66;56.04
35489;BME280;21602;55.670;37.578;2023-08-31T09:20:50;99214.56;;;24.70;55.99
35489;BME280;21602;55.670;37.578;2023-08-31T09:23:19;99211.34;;;24.68;56.02
35489;BME280;21602;55.670;37.578;2023-08-31T09:25:52;99210.69;;;24.71;55.35
35489;BME280;21602;55.670;37.578;2023-08-31T09:28:21;99210.94;;;24.78;55.42
35489;BME280;21602;55.670;37.578;2023-08-31T09:30:49;99211.78;;;24.78;54.90
35489;BME280;21602;55.670;37.578;2023-08-31T09:33:17;99207.09;;;24.79;54.24
35489;BME280;21602;55.670;37.578;2023-08-31T09:35:48;99211.44;;;24.80;53.71
35489;BME280;21602;55.670;37.578;2023-08-31T09:38:20;99209.09;;;24.91;54.01
35489;BME280;21602;55.670;37.578;2023-08-31T09:40:49;99206.31;;;24.99;53.29
35489;BME280;21602;55.670;37.578;2023-08-31T09:43:22;99205.88;;;24.97;52.89
35489;BME280;21602;55.670;37.578;2023-08-31T09:45:49;99211.31;;;24.97;52.98
35489;BME280;21602;55.670;37.578;2023-08-31T09:48:22;99213.50;;;25.04;52.23
35489;BME280;21602;55.670;37.578;2023-08-31T09:50:49;99213.00;;;25.11;52.22
35489;BME280;21602;55.670;37.578;2023-08-31T09:53:20;99219.53;;;25.18;52.32
35489;BME280;21602;55.670;37.578;2023-08-31T09:55:51;99223.66;;;25.24;51.88
35489;BME280;21602;55.670;37.578;2023-08-31T09:58:24;99220.00;;;25.20;51.51
35489;BME280;21602;55.670;37.578;2023-08-31T10:00:58;99225.44;;;25.20;51.30
35489;BME280;21602;55.670;37.578;2023-08-31T10:03:26;99219.41;;;25.15;51.18
35489;BME280;21602;55.670;37.578;2023-08-31T10:05:52;99219.41;;;25.15;51.09
35489;BME280;21602;55.670;37.578;2023-08-31T10:08:18;99218.06;;;25.21;51.05
35489;BME280;21602;55.670;37.578;2023-08-31T10:10:45;99223.78;;;25.28;50.73
35489;BME280;21602;55.670;37.578;2023-08-31T10:13:12;99223.25;;;25.35;50.54
35489;BME280;21602;55.670;37.578;2023-08-31T10:15:41;99217.91;;;25.38;50.51
35489;BME280;21602;55.670;37.578;2023-08-31T10:18:08;99218.72;;;25.39;50.30
35489;BME280;21602;55.670;37.578;2023-08-31T10:20:34;99205.84;;;25.39;50.37
35489;BME280;21602;55.670;37.578;2023-08-31T10:23:07;99204.25;;;25.38;50.26
35489;BME280;21602;55.670;37.578;2023-08-31T10:28:17;99198.06;;;25.29;50.42
35489;BME280;21602;55.670;37.578;2023-08-31T10:31:07;99207.41;;;25.28;50.76
35489;BME280;21602;55.670;37.578;2023-08-31T10:33:46;99194.69;;;25.32;50.54
35489;BME280;21602;55.670;37.578;2023-08-31T10:36:19;99197.06;;;25.34;50.76
35489;BME280;21602;55.670;37.578;2023-08-31T10:38:51;99196.06;;;25.38;50.80
35489;BME280;21602;55.670;37.578;2023-08-31T10:41:25;99194.34;;;25.34;51.26
35489;BME280;21602;55.670;37.578;2023-08-31T10:43:57;99203.47;;;25.38;51.22
35489;BME280;21602;55.670;37.578;2023-08-31T10:46:42;99202.59;;;25.46;51.20
35489;BME280;21602;55.670;37.578;2023-08-31T10:51:57;99193.88;;;25.65;49.98
35489;BME280;21602;55.670;37.578;2023-08-31T10:54:25;99196.41;;;25.70;49.91
35489;BME280;21602;55.670;37.578;2023-08-31T10:59:40;99199.66;;;25.84;49.49
35489;BME280;21602;55.670;37.578;2023-08-31T11:02:07;99192.66;;;25.74;49.39
35489;BME280;21602;55.670;37.578;2023-08-31T11:05:01;99197.34;;;25.74;49.32
35489;BME280;21602;55.670;37.578;2023-08-31T11:07:31;99199.47;;;25.68;49.59
35489;BME280;21602;55.670;37.578;2023-08-31T11:12:36;99188.72;;;25.84;49.64
35489;BME280;21602;55.670;37.578;2023-08-31T11:15:03;99192.47;;;25.92;50.22
35489;BME280;21602;55.670;37.578;2023-08-31T11:17:30;99184.41;;;25.95;49.72
35489;BME280;21602;55.670;37.578;2023-08-31T11:20:00;99183.25;;;25.96;50.27
35489;BME280;21602;55.670;37.578;2023-08-31T11:22:26;99177.47;;;25.98;50.25
35489;BME280;21602;55.670;37.578;2023-08-31T11:24:52;99172.56;;;26.03;50.22
35489;BME280;21602;55.670;37.578;2023-08-31T11:27:19;99176.22;;;26.08;50.18
35489;BME280;21602;55.670;37.578;2023-08-31T11:29:49;99182.94;;;26.10;49.95
35489;BME280;21602;55.670;37.578;2023-08-31T11:32:15;99178.97;;;26.08;50.16
35489;BME280;21602;55.670;37.578;2023-08-31T11:34:43;99180.88;;;25.95;49.95
35489;BME280;21602;55.670;37.578;2023-08-31T11:37:11;99179.50;;;25.89;50.27
35489;BME280;21602;55.670;37.578;2023-08-31T11:39:52;99173.34;;;25.92;50.16
35489;BME280;21602;55.670;37.578;2023-08-31T11:42:19;99164.25;;;25.88;50.46
35489;BME280;21602;55.670;37.578;2023-08-31T11:44:46;99157.50;;;25.85;50.74
35489;BME280;21602;55.670;37.578;2023-08-31T11:47:14;99158.06;;;25.91;51.04
35489;BME280;21602;55.670;37.578;2023-08-31T11:49:41;99151.22;;;25.97;51.03
35489;BME280;21602;55.670;37.578;2023-08-31T11:52:10;99150.44;;;25.96;51.10
35489;BME280;21602;55.670;37.578;2023-08-31T11:54:41;99156.69;;;25.97;50.83
35489;BME280;21602;55.670;37.578;2023-08-31T11:57:10;99153.88;;;26.05;50.62
35489;BME280;21602;55.670;37.578;2023-08-31T11:59:38;99146.03;;;26.16;50.17
35489;BME280;21602;55.670;37.578;2023-08-31T12:02:12;99142.59;;;26.19;49.57
35489;BME280;21602;55.670;37.578;2023-08-31T12:04:45;99139.53;;;26.21;49.67
35489;BME280;21602;55.670;37.578;2023-08-31T12:07:16;99129.47;;;26.25;49.94
35489;BME280;21602;55.670;37.578;2023-08-31T12:09:45;99129.47;;;26.25;49.88
35489;BME280;21602;55.670;37.578;2023-08-31T12:12:11;99129.03;;;26.23;50.02
35489;BME280;21602;55.670;37.578;2023-08-31T12:14:39;99129.03;;;26.23;50.28
35489;BME280;21602;55.670;37.578;2023-08-31T12:17:07;99135.41;;;26.27;50.14
35489;BME280;21602;55.670;37.578;2023-08-31T12:19:38;99134.06;;;26.21;50.30
35489;BME280;21602;55.670;37.578;2023-08-31T12:22:07;99132.66;;;26.15;50.83
35489;BME280;21602;55.670;37.578;2023-08-31T12:24:41;99136.91;;;26.12;51.05
35489;BME280;21602;55.670;37.578;2023-08-31T12:27:08;99135.41;;;26.15;50.89
35489;BME280;21602;55.670;37.578;2023-08-31T12:29:36;99135.31;;;26.11;50.74
35489;BME280;21602;55.670;37.578;2023-08-31T12:32:02;99130.63;;;26.12;50.68
35489;BME280;21602;55.670;37.578;2023-08-31T12:34:29;99130.28;;;26.13;50.84
35489;BME280;21602;55.670;37.578;2023-08-31T12:36:56;99129.94;;;26.15;50.91
35489;BME280;21602;55.670;37.578;2023-08-31T12:39:26;99126.97;;;26.20;50.87
35489;BME280;21602;55.670;37.578;2023-08-31T12:41:52;99130.63;;;26.24;50.70
35489;BME280;21602;55.670;37.578;2023-08-31T12:44:18;99117.41;;;26.26;50.55
35489;BME280;21602;55.670;37.578;2023-08-31T12:46:44;99115.00;;;26.24;50.98
35489;BME280;21602;55.670;37.578;2023-08-31T12:49:13;99121.16;;;26.21;50.66
35489;BME280;21602;55.670;37.578;2023-08-31T12:51:39;99115.09;;;26.16;50.83
35489;BME280;21602;55.670;37.578;2023-08-31T12:54:07;99111.50;;;26.12;51.25
35489;BME280;21602;55.670;37.578;2023-08-31T12:56:33;99108.84;;;26.15;51.07
35489;BME280;21602;55.670;37.578;2023-08-31T12:58:59;99108.97;;;26.19;51.15
35489;BME280;21602;55.670;37.578;2023-08-31T13:01:25;99110.78;;;26.27;51.44
35489;BME280;21602;55.670;37.578;2023-08-31T13:03:51;99105.53;;;26.34;51.32
35489;BME280;21602;55.670;37.578;2023-08-31T13:06:18;99108.03;;;26.39;51.33
35489;BME280;21602;55.670;37.578;2023-08-31T13:08:47;99102.69;;;26.43;51.27
35489;BME280;21602;55.670;37.578;2023-08-31T13:11:13;99108.03;;;26.39;51.20
35489;BME280;21602;55.670;37.578;2023-08-31T13:13:40;99106.44;;;26.38;51.43